Terminal Aerodrome Forecast
Issued by NWS

Home | Current Version | Previous Version | Text Only | Print | Product List | Glossary On
Versions: 1 2 3 4 5 6 7 8 9 10 11 12 13 14 15 16 17 18 19
000
FTUS44 KHGX 281720
TAFSGR
TAF
KSGR 281720Z 2818/2918 22007KT P6SM VCSH SCT025
     FM290100 20004KT P6SM FEW250
     FM291500 24008KT P6SM FEW050 SCT250=

USA.gov is the U.S. government's official web portal to all federal, state and local government web resources and services.